sensor_id;sensor_type;location;lat;lon;timestamp;P1;durP1;ratioP1;P2;durP2;ratioP2
23306;SDS011;11822;52.470;10.688;2022-07-12T00:00:33;2.50;;;2.03;;
23306;SDS011;11822;52.470;10.688;2022-07-12T00:02:59;3.28;;;1.90;;
23306;SDS011;11822;52.470;10.688;2022-07-12T00:05:24;2.38;;;1.80;;
23306;SDS011;11822;52.470;10.688;2022-07-12T00:07:50;3.92;;;2.00;;
23306;SDS011;11822;52.470;10.688;2022-07-12T00:10:15;2.80;;;2.08;;
23306;SDS011;11822;52.470;10.688;2022-07-12T00:12:40;4.53;;;2.00;;
23306;SDS011;11822;52.470;10.688;2022-07-12T00:15:06;2.42;;;2.00;;
23306;SDS011;11822;52.470;10.688;2022-07-12T00:17:32;5.40;;;2.08;;
23306;SDS011;11822;52.470;10.688;2022-07-12T00:19:58;2.63;;;2.30;;
23306;SDS011;11822;52.470;10.688;2022-07-12T00:22:23;3.35;;;2.40;;
23306;SDS011;11822;52.470;10.688;2022-07-12T00:24:49;2.45;;;2.25;;
23306;SDS011;11822;52.470;10.688;2022-07-12T00:27:15;3.22;;;2.40;;
23306;SDS011;11822;52.470;10.688;2022-07-12T00:29:40;1.88;;;1.77;;
23306;SDS011;11822;52.470;10.688;2022-07-12T00:32:05;3.03;;;2.30;;
23306;SDS011;11822;52.470;10.688;2022-07-12T00:34:32;4.30;;;1.80;;
23306;SDS011;11822;52.470;10.688;2022-07-12T00:36:58;2.10;;;1.90;;
23306;SDS011;11822;52.470;10.688;2022-07-12T00:39:23;3.47;;;2.33;;
23306;SDS011;11822;52.470;10.688;2022-07-12T00:41:49;3.47;;;2.00;;
23306;SDS011;11822;52.470;10.688;2022-07-12T00:44:14;3.70;;;2.10;;
23306;SDS011;11822;52.470;10.688;2022-07-12T00:46:40;2.83;;;2.10;;
23306;SDS011;11822;52.470;10.688;2022-07-12T00:49:05;2.38;;;2.20;;
23306;SDS011;11822;52.470;10.688;2022-07-12T00:51:31;3.85;;;2.20;;
23306;SDS011;11822;52.470;10.688;2022-07-12T00:53:57;2.00;;;1.90;;
23306;SDS011;11822;52.470;10.688;2022-07-12T00:56:24;3.53;;;2.30;;
23306;SDS011;11822;52.470;10.688;2022-07-12T00:58:50;4.82;;;2.60;;
23306;SDS011;11822;52.470;10.688;2022-07-12T01:01:15;2.50;;;2.30;;
23306;SDS011;11822;52.470;10.688;2022-07-12T01:03:41;3.80;;;2.55;;
23306;SDS011;11822;52.470;10.688;2022-07-12T01:06:07;4.60;;;2.42;;
23306;SDS011;11822;52.470;10.688;2022-07-12T01:08:33;2.95;;;2.30;;
23306;SDS011;11822;52.470;10.688;2022-07-12T01:10:58;2.72;;;2.53;;
23306;SDS011;11822;52.470;10.688;2022-07-12T01:13:25;3.67;;;2.78;;
23306;SDS011;11822;52.470;10.688;2022-07-12T01:15:50;3.30;;;3.00;;
23306;SDS011;11822;52.470;10.688;2022-07-12T01:18:17;3.38;;;2.60;;
23306;SDS011;11822;52.470;10.688;2022-07-12T01:20:44;3.05;;;2.72;;
23306;SDS011;11822;52.470;10.688;2022-07-12T01:23:10;3.40;;;2.60;;
23306;SDS011;11822;52.470;10.688;2022-07-12T01:25:37;3.10;;;2.80;;
23306;SDS011;11822;52.470;10.688;2022-07-12T01:28:02;3.10;;;2.80;;
23306;SDS011;11822;52.470;10.688;2022-07-12T01:30:28;2.88;;;2.22;;
23306;SDS011;11822;52.470;10.688;2022-07-12T01:32:54;3.20;;;2.70;;
23306;SDS011;11822;52.470;10.688;2022-07-12T01:35:20;3.22;;;2.80;;
23306;SDS011;11822;52.470;10.688;2022-07-12T01:37:46;3.45;;;3.00;;
23306;SDS011;11822;52.470;10.688;2022-07-12T01:40:12;3.92;;;3.30;;
23306;SDS011;11822;52.470;10.688;2022-07-12T01:42:39;4.45;;;2.75;;
23306;SDS011;11822;52.470;10.688;2022-07-12T01:45:06;3.75;;;3.38;;
23306;SDS011;11822;52.470;10.688;2022-07-12T01:47:33;5.00;;;3.40;;
23306;SDS011;11822;52.470;10.688;2022-07-12T01:49:59;5.32;;;3.33;;
23306;SDS011;11822;52.470;10.688;2022-07-12T01:52:25;4.03;;;3.20;;
23306;SDS011;11822;52.470;10.688;2022-07-12T01:54:51;4.75;;;3.58;;
23306;SDS011;11822;52.470;10.688;2022-07-12T01:57:19;3.60;;;3.30;;
23306;SDS011;11822;52.470;10.688;2022-07-12T01:59:44;3.83;;;3.33;;
23306;SDS011;11822;52.470;10.688;2022-07-12T02:02:10;6.15;;;3.75;;
23306;SDS011;11822;52.470;10.688;2022-07-12T02:04:36;4.15;;;3.30;;
23306;SDS011;11822;52.470;10.688;2022-07-12T02:07:01;3.88;;;3.58;;
23306;SDS011;11822;52.470;10.688;2022-07-12T02:09:28;5.05;;;3.50;;
23306;SDS011;11822;52.470;10.688;2022-07-12T02:11:54;5.47;;;3.60;;
23306;SDS011;11822;52.470;10.688;2022-07-12T02:14:19;3.85;;;3.55;;
23306;SDS011;11822;52.470;10.688;2022-07-12T02:16:46;4.97;;;3.75;;
23306;SDS011;11822;52.470;10.688;2022-07-12T02:19:11;4.13;;;3.60;;
23306;SDS011;11822;52.470;10.688;2022-07-12T02:21:38;4.28;;;3.58;;
23306;SDS011;11822;52.470;10.688;2022-07-12T02:24:04;5.40;;;3.38;;
23306;SDS011;11822;52.470;10.688;2022-07-12T02:26:29;5.53;;;3.88;;
23306;SDS011;11822;52.470;10.688;2022-07-12T02:28:57;5.45;;;3.67;;
23306;SDS011;11822;52.470;10.688;2022-07-12T02:31:22;3.72;;;3.30;;
23306;SDS011;11822;52.470;10.688;2022-07-12T02:33:48;4.25;;;3.85;;
23306;SDS011;11822;52.470;10.688;2022-07-12T02:36:13;6.57;;;3.50;;
23306;SDS011;11822;52.470;10.688;2022-07-12T02:38:38;4.25;;;3.85;;
23306;SDS011;11822;52.470;10.688;2022-07-12T02:41:04;7.25;;;4.10;;
23306;SDS011;11822;52.470;10.688;2022-07-12T02:43:30;6.10;;;4.90;;
23306;SDS011;11822;52.470;10.688;2022-07-12T02:46:09;6.18;;;5.03;;
23306;SDS011;11822;52.470;10.688;2022-07-12T02:48:35;9.07;;;5.38;;
23306;SDS011;11822;52.470;10.688;2022-07-12T02:51:02;10.60;;;6.03;;
23306;SDS011;11822;52.470;10.688;2022-07-12T02:53:29;15.32;;;7.32;;
23306;SDS011;11822;52.470;10.688;2022-07-12T02:55:54;25.65;;;7.65;;
23306;SDS011;11822;52.470;10.688;2022-07-12T02:58:20;24.70;;;8.68;;
23306;SDS011;11822;52.470;10.688;2022-07-12T03:00:46;61.03;;;8.57;;
23306;SDS011;11822;52.470;10.688;2022-07-12T03:03:11;19.27;;;7.90;;
23306;SDS011;11822;52.470;10.688;2022-07-12T03:05:37;38.42;;;8.35;;
23306;SDS011;11822;52.470;10.688;2022-07-12T03:08:03;24.83;;;8.35;;
23306;SDS011;11822;52.470;10.688;2022-07-12T03:10:29;18.88;;;8.80;;
23306;SDS011;11822;52.470;10.688;2022-07-12T03:12:54;84.95;;;9.57;;
23306;SDS011;11822;52.470;10.688;2022-07-12T03:15:19;31.10;;;9.32;;
23306;SDS011;11822;52.470;10.688;2022-07-12T03:17:45;67.68;;;10.07;;
23306;SDS011;11822;52.470;10.688;2022-07-12T03:20:11;60.05;;;10.63;;
23306;SDS011;11822;52.470;10.688;2022-07-12T03:22:39;25.25;;;8.07;;
23306;SDS011;11822;52.470;10.688;2022-07-12T03:25:14;29.48;;;8.35;;
23306;SDS011;11822;52.470;10.688;2022-07-12T03:27:40;28.85;;;9.07;;
23306;SDS011;11822;52.470;10.688;2022-07-12T03:30:05;19.35;;;8.80;;
23306;SDS011;11822;52.470;10.688;2022-07-12T03:32:32;16.83;;;9.10;;
23306;SDS011;11822;52.470;10.688;2022-07-12T03:34:57;18.13;;;9.30;;
23306;SDS011;11822;52.470;10.688;2022-07-12T03:37:23;44.30;;;10.35;;
23306;SDS011;11822;52.470;10.688;2022-07-12T03:39:48;11.20;;;7.97;;
23306;SDS011;11822;52.470;10.688;2022-07-12T03:42:13;29.02;;;9.63;;
23306;SDS011;11822;52.470;10.688;2022-07-12T03:44:39;18.67;;;9.55;;
23306;SDS011;11822;52.470;10.688;2022-07-12T03:47:04;46.88;;;9.98;;
23306;SDS011;11822;52.470;10.688;2022-07-12T03:49:30;25.73;;;9.93;;
23306;SDS011;11822;52.470;10.688;2022-07-12T03:51:56;30.52;;;11.20;;
23306;SDS011;11822;52.470;10.688;2022-07-12T03:54:21;39.67;;;10.55;;
23306;SDS011;11822;52.470;10.688;2022-07-12T03:56:47;18.02;;;10.35;;
23306;SDS011;11822;52.470;10.688;2022-07-12T03:59:31;16.90;;;10.95;;
23306;SDS011;11822;52.470;10.688;2022-07-12T04:01:56;31.92;;;12.27;;
23306;SDS011;11822;52.470;10.688;2022-07-12T04:04:22;29.35;;;11.50;;
23306;SDS011;11822;52.470;10.688;2022-07-12T04:06:47;16.83;;;11.40;;
23306;SDS011;11822;52.470;10.688;2022-07-12T04:09:13;18.65;;;12.18;;
23306;SDS011;11822;52.470;10.688;2022-07-12T04:11:39;15.07;;;11.18;;
23306;SDS011;11822;52.470;10.688;2022-07-12T04:14:04;16.70;;;12.80;;
23306;SDS011;11822;52.470;10.688;2022-07-12T04:16:29;15.80;;;12.82;;
23306;SDS011;11822;52.470;10.688;2022-07-12T04:18:55;15.63;;;12.35;;
23306;SDS011;11822;52.470;10.688;2022-07-12T04:21:21;15.98;;;12.07;;
23306;SDS011;11822;52.470;10.688;2022-07-12T04:23:46;16.38;;;12.85;;
23306;SDS011;11822;52.470;10.688;2022-07-12T04:26:12;17.00;;;13.15;;
23306;SDS011;11822;52.470;10.688;2022-07-12T04:28:37;16.73;;;12.57;;
23306;SDS011;11822;52.470;10.688;2022-07-12T04:31:02;14.32;;;12.43;;
23306;SDS011;11822;52.470;10.688;2022-07-12T04:33:28;12.60;;;11.18;;
23306;SDS011;11822;52.470;10.688;2022-07-12T04:35:54;14.18;;;11.23;;
23306;SDS011;11822;52.470;10.688;2022-07-12T04:38:19;12.82;;;11.00;;
23306;SDS011;11822;52.470;10.688;2022-07-12T04:40:44;12.52;;;11.23;;
23306;SDS011;11822;52.470;10.688;2022-07-12T04:43:10;15.25;;;10.77;;
23306;SDS011;11822;52.470;10.688;2022-07-12T04:45:35;15.05;;;10.48;;
23306;SDS011;11822;52.470;10.688;2022-07-12T04:48:01;12.00;;;10.80;;
23306;SDS011;11822;52.470;10.688;2022-07-12T04:50:27;12.35;;;10.27;;
23306;SDS011;11822;52.470;10.688;2022-07-12T04:52:52;12.30;;;10.85;;
23306;SDS011;11822;52.470;10.688;2022-07-12T04:55:17;15.25;;;10.77;;
23306;SDS011;11822;52.470;10.688;2022-07-12T04:57:43;13.40;;;10.55;;
23306;SDS011;11822;52.470;10.688;2022-07-12T05:00:09;14.50;;;10.80;;
23306;SDS011;11822;52.470;10.688;2022-07-12T05:02:35;16.25;;;10.95;;
23306;SDS011;11822;52.470;10.688;2022-07-12T05:05:00;14.05;;;11.05;;
23306;SDS011;11822;52.470;10.688;2022-07-12T05:07:26;19.52;;;11.05;;
23306;SDS011;11822;52.470;10.688;2022-07-12T05:09:51;15.63;;;11.52;;
23306;SDS011;11822;52.470;10.688;2022-07-12T05:12:17;11.55;;;10.35;;
23306;SDS011;11822;52.470;10.688;2022-07-12T05:14:43;12.20;;;10.45;;
23306;SDS011;11822;52.470;10.688;2022-07-12T05:17:08;11.30;;;10.07;;
23306;SDS011;11822;52.470;10.688;2022-07-12T05:19:34;13.52;;;10.85;;
23306;SDS011;11822;52.470;10.688;2022-07-12T05:21:59;11.88;;;10.20;;
23306;SDS011;11822;52.470;10.688;2022-07-12T05:24:25;11.18;;;10.00;;
23306;SDS011;11822;52.470;10.688;2022-07-12T05:26:50;14.00;;;10.00;;
23306;SDS011;11822;52.470;10.688;2022-07-12T05:29:15;12.02;;;9.45;;
23306;SDS011;11822;52.470;10.688;2022-07-12T05:31:41;10.90;;;8.55;;
23306;SDS011;11822;52.470;10.688;2022-07-12T05:34:06;9.60;;;8.60;;
23306;SDS011;11822;52.470;10.688;2022-07-12T05:36:31;9.68;;;8.68;;
23306;SDS011;11822;52.470;10.688;2022-07-12T05:38:57;9.65;;;8.65;;
23306;SDS011;11822;52.470;10.688;2022-07-12T05:41:22;9.98;;;8.52;;
23306;SDS011;11822;52.470;10.688;2022-07-12T05:43:48;8.65;;;7.70;;
23306;SDS011;11822;52.470;10.688;2022-07-12T05:46:13;7.68;;;6.80;;
23306;SDS011;11822;52.470;10.688;2022-07-12T05:48:39;7.55;;;6.82;;
23306;SDS011;11822;52.470;10.688;2022-07-12T05:51:04;7.28;;;6.03;;
23306;SDS011;11822;52.470;10.688;2022-07-12T05:53:48;8.40;;;6.00;;
23306;SDS011;11822;52.470;10.688;2022-07-12T05:56:14;6.60;;;6.00;;
23306;SDS011;11822;52.470;10.688;2022-07-12T05:58:39;6.47;;;5.88;;
23306;SDS011;11822;52.470;10.688;2022-07-12T06:01:05;7.07;;;6.38;;
23306;SDS011;11822;52.470;10.688;2022-07-12T06:03:31;6.15;;;5.57;;
23306;SDS011;11822;52.470;10.688;2022-07-12T06:05:58;6.75;;;6.00;;
23306;SDS011;11822;52.470;10.688;2022-07-12T06:08:23;6.15;;;5.65;;
23306;SDS011;11822;52.470;10.688;2022-07-12T06:10:49;6.85;;;6.22;;
23306;SDS011;11822;52.470;10.688;2022-07-12T06:13:14;6.65;;;5.88;;
23306;SDS011;11822;52.470;10.688;2022-07-12T06:15:40;6.82;;;6.13;;
23306;SDS011;11822;52.470;10.688;2022-07-12T06:18:05;5.80;;;5.20;;
23306;SDS011;11822;52.470;10.688;2022-07-12T06:20:31;5.85;;;5.35;;
23306;SDS011;11822;52.470;10.688;2022-07-12T06:22:57;6.10;;;5.57;;
23306;SDS011;11822;52.470;10.688;2022-07-12T06:25:23;5.72;;;5.13;;
23306;SDS011;11822;52.470;10.688;2022-07-12T06:27:48;6.07;;;5.20;;
23306;SDS011;11822;52.470;10.688;2022-07-12T06:30:17;6.00;;;5.40;;
23306;SDS011;11822;52.470;10.688;2022-07-12T06:32:44;5.53;;;4.53;;
23306;SDS011;11822;52.470;10.688;2022-07-12T06:35:11;4.93;;;4.15;;
23306;SDS011;11822;52.470;10.688;2022-07-12T06:37:36;6.80;;;4.53;;
23306;SDS011;11822;52.470;10.688;2022-07-12T06:40:02;4.15;;;3.75;;
23306;SDS011;11822;52.470;10.688;2022-07-12T06:42:27;3.65;;;3.30;;
23306;SDS011;11822;52.470;10.688;2022-07-12T06:44:53;3.85;;;3.03;;
23306;SDS011;11822;52.470;10.688;2022-07-12T06:47:19;3.25;;;2.75;;
23306;SDS011;11822;52.470;10.688;2022-07-12T06:49:44;4.22;;;3.08;;
23306;SDS011;11822;52.470;10.688;2022-07-12T06:52:10;3.97;;;2.75;;
23306;SDS011;11822;52.470;10.688;2022-07-12T06:54:36;5.47;;;2.50;;
23306;SDS011;11822;52.470;10.688;2022-07-12T06:57:01;3.05;;;2.58;;
23306;SDS011;11822;52.470;10.688;2022-07-12T06:59:26;2.95;;;2.60;;
23306;SDS011;11822;52.470;10.688;2022-07-12T07:01:52;3.58;;;2.40;;
23306;SDS011;11822;52.470;10.688;2022-07-12T07:04:20;3.50;;;2.50;;
23306;SDS011;11822;52.470;10.688;2022-07-12T07:06:46;2.83;;;2.50;;
23306;SDS011;11822;52.470;10.688;2022-07-12T07:09:11;2.92;;;2.50;;
23306;SDS011;11822;52.470;10.688;2022-07-12T07:11:37;3.40;;;2.60;;
23306;SDS011;11822;52.470;10.688;2022-07-12T07:14:03;2.40;;;2.20;;
23306;SDS011;11822;52.470;10.688;2022-07-12T07:16:28;2.50;;;2.30;;
23306;SDS011;11822;52.470;10.688;2022-07-12T07:18:54;4.38;;;2.20;;
23306;SDS011;11822;52.470;10.688;2022-07-12T07:21:19;2.42;;;2.20;;
23306;SDS011;11822;52.470;10.688;2022-07-12T07:23:44;2.55;;;2.10;;
23306;SDS011;11822;52.470;10.688;2022-07-12T07:26:10;6.13;;;2.45;;
23306;SDS011;11822;52.470;10.688;2022-07-12T07:28:35;3.90;;;2.05;;
23306;SDS011;11822;52.470;10.688;2022-07-12T07:31:20;6.43;;;2.17;;
23306;SDS011;11822;52.470;10.688;2022-07-12T07:33:46;7.68;;;1.98;;
23306;SDS011;11822;52.470;10.688;2022-07-12T07:36:12;5.20;;;1.70;;
23306;SDS011;11822;52.470;10.688;2022-07-12T07:38:37;2.65;;;1.67;;
23306;SDS011;11822;52.470;10.688;2022-07-12T07:41:03;2.85;;;1.48;;
23306;SDS011;11822;52.470;10.688;2022-07-12T07:43:28;1.83;;;1.73;;
23306;SDS011;11822;52.470;10.688;2022-07-12T07:45:53;3.75;;;1.92;;
23306;SDS011;11822;52.470;10.688;2022-07-12T07:48:19;3.15;;;1.80;;
23306;SDS011;11822;52.470;10.688;2022-07-12T07:50:45;2.35;;;1.73;;
23306;SDS011;11822;52.470;10.688;2022-07-12T07:53:10;1.73;;;1.60;;
23306;SDS011;11822;52.470;10.688;2022-07-12T07:55:36;3.10;;;2.33;;
23306;SDS011;11822;52.470;10.688;2022-07-12T07:58:01;2.20;;;1.67;;
23306;SDS011;11822;52.470;10.688;2022-07-12T08:00:27;1.98;;;1.40;;
23306;SDS011;11822;52.470;10.688;2022-07-12T08:02:54;4.60;;;2.20;;
23306;SDS011;11822;52.470;10.688;2022-07-12T08:05:22;2.47;;;1.95;;
23306;SDS011;11822;52.470;10.688;2022-07-12T08:07:48;4.20;;;2.05;;
23306;SDS011;11822;52.470;10.688;2022-07-12T08:10:13;4.68;;;3.33;;
23306;SDS011;11822;52.470;10.688;2022-07-12T08:12:38;5.40;;;1.58;;
23306;SDS011;11822;52.470;10.688;2022-07-12T08:15:04;4.93;;;1.70;;
23306;SDS011;11822;52.470;10.688;2022-07-12T08:17:31;1.88;;;1.70;;
23306;SDS011;11822;52.470;10.688;2022-07-12T08:19:56;2.90;;;1.63;;
23306;SDS011;11822;52.470;10.688;2022-07-12T08:22:22;3.13;;;2.20;;
23306;SDS011;11822;52.470;10.688;2022-07-12T08:24:47;2.53;;;1.92;;
23306;SDS011;11822;52.470;10.688;2022-07-12T08:27:13;2.42;;;1.55;;
23306;SDS011;11822;52.470;10.688;2022-07-12T08:29:38;2.20;;;1.60;;
23306;SDS011;11822;52.470;10.688;2022-07-12T08:32:03;1.92;;;1.73;;
23306;SDS011;11822;52.470;10.688;2022-07-12T08:34:30;1.95;;;1.40;;
23306;SDS011;11822;52.470;10.688;2022-07-12T08:36:55;1.45;;;1.33;;
23306;SDS011;11822;52.470;10.688;2022-07-12T08:39:21;1.52;;;1.42;;
23306;SDS011;11822;52.470;10.688;2022-07-12T08:41:46;1.60;;;1.50;;
23306;SDS011;11822;52.470;10.688;2022-07-12T08:44:11;1.85;;;1.50;;
23306;SDS011;11822;52.470;10.688;2022-07-12T08:46:37;1.85;;;1.50;;
23306;SDS011;11822;52.470;10.688;2022-07-12T08:49:06;1.70;;;1.45;;
23306;SDS011;11822;52.470;10.688;2022-07-12T08:51:34;1.65;;;1.33;;
23306;SDS011;11822;52.470;10.688;2022-07-12T08:54:09;3.00;;;1.55;;
23306;SDS011;11822;52.470;10.688;2022-07-12T08:56:39;2.53;;;1.40;;
23306;SDS011;11822;52.470;10.688;2022-07-12T08:59:38;3.33;;;1.40;;
23306;SDS011;11822;52.470;10.688;2022-07-12T09:01:56;2.95;;;1.38;;
23306;SDS011;11822;52.470;10.688;2022-07-12T09:04:24;2.83;;;1.10;;
23306;SDS011;11822;52.470;10.688;2022-07-12T09:06:52;1.88;;;1.13;;
23306;SDS011;11822;52.470;10.688;2022-07-12T09:09:31;3.25;;;1.42;;
23306;SDS011;11822;52.470;10.688;2022-07-12T09:11:58;1.55;;;1.30;;
23306;SDS011;11822;52.470;10.688;2022-07-12T09:14:24;1.50;;;1.38;;
23306;SDS011;11822;52.470;10.688;2022-07-12T09:17:01;2.38;;;1.25;;
23306;SDS011;11822;52.470;10.688;2022-07-12T09:19:29;2.95;;;1.10;;
23306;SDS011;11822;52.470;10.688;2022-07-12T09:21:55;1.60;;;1.30;;
23306;SDS011;11822;52.470;10.688;2022-07-12T09:24:24;2.88;;;1.40;;
23306;SDS011;11822;52.470;10.688;2022-07-12T09:26:59;0.95;;;0.95;;
23306;SDS011;11822;52.470;10.688;2022-07-12T09:29:27;1.80;;;1.30;;
23306;SDS011;11822;52.470;10.688;2022-07-12T09:31:53;3.28;;;1.20;;
23306;SDS011;11822;52.470;10.688;2022-07-12T09:34:37;1.98;;;1.15;;
23306;SDS011;11822;52.470;10.688;2022-07-12T09:37:22;1.92;;;1.30;;
23306;SDS011;11822;52.470;10.688;2022-07-12T09:39:49;1.38;;;1.23;;
23306;SDS011;11822;52.470;10.688;2022-07-12T09:42:16;2.03;;;1.00;;
23306;SDS011;11822;52.470;10.688;2022-07-12T09:44:43;1.15;;;0.90;;
23306;SDS011;11822;52.470;10.688;2022-07-12T09:47:12;2.10;;;1.02;;
23306;SDS011;11822;52.470;10.688;2022-07-12T09:49:41;1.33;;;1.10;;
23306;SDS011;11822;52.470;10.688;2022-07-12T09:52:11;2.00;;;1.17;;
23306;SDS011;11822;52.470;10.688;2022-07-12T09:54:41;0.93;;;0.80;;
23306;SDS011;11822;52.470;10.688;2022-07-12T09:57:10;1.85;;;1.05;;
23306;SDS011;11822;52.470;10.688;2022-07-12T09:59:42;1.30;;;0.90;;
23306;SDS011;11822;52.470;10.688;2022-07-12T10:02:09;1.00;;;0.90;;
23306;SDS011;11822;52.470;10.688;2022-07-12T10:04:40;1.30;;;0.80;;
23306;SDS011;11822;52.470;10.688;2022-07-12T10:07:07;2.05;;;0.90;;
23306;SDS011;11822;52.470;10.688;2022-07-12T10:09:33;3.63;;;1.08;;
23306;SDS011;11822;52.470;10.688;2022-07-12T10:12:00;2.42;;;0.90;;
23306;SDS011;11822;52.470;10.688;2022-07-12T10:14:27;2.28;;;0.85;;
23306;SDS011;11822;52.470;10.688;2022-07-12T10:16:53;2.03;;;0.85;;
23306;SDS011;11822;52.470;10.688;2022-07-12T10:19:23;1.58;;;0.80;;
23306;SDS011;11822;52.470;10.688;2022-07-12T10:21:49;2.13;;;0.90;;
23306;SDS011;11822;52.470;10.688;2022-07-12T10:26:59;1.60;;;0.77;;
23306;SDS011;11822;52.470;10.688;2022-07-12T10:29:51;2.65;;;1.08;;
23306;SDS011;11822;52.470;10.688;2022-07-12T10:32:21;2.45;;;0.98;;
23306;SDS011;11822;52.470;10.688;2022-07-12T10:45:29;2.33;;;1.00;;
23306;SDS011;11822;52.470;10.688;2022-07-12T10:47:56;2.72;;;0.95;;
23306;SDS011;11822;52.470;10.688;2022-07-12T11:01:20;1.40;;;1.30;;
23306;SDS011;11822;52.470;10.688;2022-07-12T11:06:23;2.40;;;1.20;;
23306;SDS011;11822;52.470;10.688;2022-07-12T11:11:21;2.67;;;1.80;;
23306;SDS011;11822;52.470;10.688;2022-07-12T11:13:48;5.30;;;1.90;;
23306;SDS011;11822;52.470;10.688;2022-07-12T11:16:14;2.80;;;2.03;;
23306;SDS011;11822;52.470;10.688;2022-07-12T11:18:41;2.08;;;1.77;;
23306;SDS011;11822;52.470;10.688;2022-07-12T11:21:07;1.90;;;1.80;;
23306;SDS011;11822;52.470;10.688;2022-07-12T11:23:33;4.90;;;2.40;;
23306;SDS011;11822;52.470;10.688;2022-07-12T11:26:00;2.95;;;2.22;;
23306;SDS011;11822;52.470;10.688;2022-07-12T11:28:28;6.47;;;2.30;;
23306;SDS011;11822;52.470;10.688;2022-07-12T11:31:05;3.58;;;2.30;;
23306;SDS011;11822;52.470;10.688;2022-07-12T11:33:31;2.78;;;2.53;;
23306;SDS011;11822;52.470;10.688;2022-07-12T11:35:59;3.03;;;2.70;;
23306;SDS011;11822;52.470;10.688;2022-07-12T11:38:27;3.45;;;2.47;;
23306;SDS011;11822;52.470;10.688;2022-07-12T11:40:59;2.65;;;2.42;;
23306;SDS011;11822;52.470;10.688;2022-07-12T11:43:26;2.37;;;2.20;;
23306;SDS011;11822;52.470;10.688;2022-07-12T11:45:53;2.65;;;2.45;;
23306;SDS011;11822;52.470;10.688;2022-07-12T11:48:20;3.22;;;2.92;;
23306;SDS011;11822;52.470;10.688;2022-07-12T11:50:47;2.70;;;2.40;;
23306;SDS011;11822;52.470;10.688;2022-07-12T11:55:56;5.10;;;2.83;;
23306;SDS011;11822;52.470;10.688;2022-07-12T11:58:23;3.47;;;2.10;;
23306;SDS011;11822;52.470;10.688;2022-07-12T12:00:51;5.30;;;2.45;;
23306;SDS011;11822;52.470;10.688;2022-07-12T12:03:17;2.60;;;2.10;;
23306;SDS011;11822;52.470;10.688;2022-07-12T12:05:44;3.10;;;1.98;;
23306;SDS011;11822;52.470;10.688;2022-07-12T12:08:13;2.88;;;2.63;;
23306;SDS011;11822;52.470;10.688;2022-07-12T12:10:42;5.50;;;2.13;;
23306;SDS011;11822;52.470;10.688;2022-07-12T12:13:15;2.30;;;2.10;;
23306;SDS011;11822;52.470;10.688;2022-07-12T12:15:47;2.38;;;2.28;;
23306;SDS011;11822;52.470;10.688;2022-07-12T12:18:15;2.28;;;2.08;;
23306;SDS011;11822;52.470;10.688;2022-07-12T12:20:40;3.90;;;1.90;;
23306;SDS011;11822;52.470;10.688;2022-07-12T12:23:15;4.53;;;2.30;;
23306;SDS011;11822;52.470;10.688;2022-07-12T12:25:43;9.93;;;2.05;;
23306;SDS011;11822;52.470;10.688;2022-07-12T12:28:08;2.00;;;1.80;;
23306;SDS011;11822;52.470;10.688;2022-07-12T12:30:35;6.70;;;2.13;;
23306;SDS011;11822;52.470;10.688;2022-07-12T12:33:12;4.38;;;2.50;;
23306;SDS011;11822;52.470;10.688;2022-07-12T12:35:38;3.22;;;2.08;;
23306;SDS011;11822;52.470;10.688;2022-07-12T12:38:10;2.08;;;1.95;;
23306;SDS011;11822;52.470;10.688;2022-07-12T12:40:36;2.13;;;1.90;;
23306;SDS011;11822;52.470;10.688;2022-07-12T12:43:13;3.90;;;2.00;;
23306;SDS011;11822;52.470;10.688;2022-07-12T12:45:50;6.30;;;2.22;;
23306;SDS011;11822;52.470;10.688;2022-07-12T12:48:18;4.50;;;1.90;;
23306;SDS011;11822;52.470;10.688;2022-07-12T12:50:45;1.77;;;1.55;;
23306;SDS011;11822;52.470;10.688;2022-07-12T12:55:37;1.75;;;1.60;;
23306;SDS011;11822;52.470;10.688;2022-07-12T12:58:03;5.28;;;1.60;;
23306;SDS011;11822;52.470;10.688;2022-07-12T13:00:29;4.00;;;1.20;;
23306;SDS011;11822;52.470;10.688;2022-07-12T13:02:56;1.30;;;1.20;;
23306;SDS011;11822;52.470;10.688;2022-07-12T13:05:25;2.45;;;1.02;;
23306;SDS011;11822;52.470;10.688;2022-07-12T13:07:54;1.67;;;0.68;;
23306;SDS011;11822;52.470;10.688;2022-07-12T13:10:20;1.10;;;1.00;;
23306;SDS011;11822;52.470;10.688;2022-07-12T13:12:46;1.60;;;0.70;;
23306;SDS011;11822;52.470;10.688;2022-07-12T13:15:12;1.42;;;0.93;;
23306;SDS011;11822;52.470;10.688;2022-07-12T13:17:37;1.20;;;1.00;;
23306;SDS011;11822;52.470;10.688;2022-07-12T13:20:03;1.83;;;1.10;;
23306;SDS011;11822;52.470;10.688;2022-07-12T13:22:30;1.90;;;1.20;;
23306;SDS011;11822;52.470;10.688;2022-07-12T13:24:56;2.50;;;1.10;;
23306;SDS011;11822;52.470;10.688;2022-07-12T13:27:21;2.55;;;1.17;;
23306;SDS011;11822;52.470;10.688;2022-07-12T13:29:47;2.78;;;1.05;;
23306;SDS011;11822;52.470;10.688;2022-07-12T13:32:12;1.20;;;1.00;;
23306;SDS011;11822;52.470;10.688;2022-07-12T13:34:37;1.20;;;1.00;;
23306;SDS011;11822;52.470;10.688;2022-07-12T13:37:03;2.13;;;1.00;;
23306;SDS011;11822;52.470;10.688;2022-07-12T13:39:29;2.30;;;0.88;;
23306;SDS011;11822;52.470;10.688;2022-07-12T13:42:14;2.28;;;1.00;;
23306;SDS011;11822;52.470;10.688;2022-07-12T13:44:39;1.60;;;0.70;;
23306;SDS011;11822;52.470;10.688;2022-07-12T13:47:04;2.25;;;1.00;;
23306;SDS011;11822;52.470;10.688;2022-07-12T13:49:30;2.30;;;0.98;;
23306;SDS011;11822;52.470;10.688;2022-07-12T13:51:56;3.15;;;0.80;;
23306;SDS011;11822;52.470;10.688;2022-07-12T13:54:21;2.50;;;0.60;;
23306;SDS011;11822;52.470;10.688;2022-07-12T13:56:46;3.60;;;0.82;;
23306;SDS011;11822;52.470;10.688;2022-07-12T13:59:12;1.95;;;0.70;;
23306;SDS011;11822;52.470;10.688;2022-07-12T14:01:37;1.88;;;0.80;;
23306;SDS011;11822;52.470;10.688;2022-07-12T14:04:03;1.52;;;1.00;;
23306;SDS011;11822;52.470;10.688;2022-07-12T14:06:28;1.67;;;0.88;;
23306;SDS011;11822;52.470;10.688;2022-07-12T14:08:55;1.45;;;0.90;;
23306;SDS011;11822;52.470;10.688;2022-07-12T14:11:20;0.98;;;0.80;;
23306;SDS011;11822;52.470;10.688;2022-07-12T14:13:46;2.10;;;0.90;;
23306;SDS011;11822;52.470;10.688;2022-07-12T14:16:11;2.35;;;0.80;;
23306;SDS011;11822;52.470;10.688;2022-07-12T14:18:38;2.10;;;0.88;;
23306;SDS011;11822;52.470;10.688;2022-07-12T14:21:04;1.08;;;0.90;;
23306;SDS011;11822;52.470;10.688;2022-07-12T14:23:31;1.75;;;0.80;;
23306;SDS011;11822;52.470;10.688;2022-07-12T14:25:57;0.80;;;0.80;;
23306;SDS011;11822;52.470;10.688;2022-07-12T14:28:22;1.65;;;0.82;;
23306;SDS011;11822;52.470;10.688;2022-07-12T14:30:47;2.20;;;0.85;;
23306;SDS011;11822;52.470;10.688;2022-07-12T14:33:13;1.65;;;0.70;;
23306;SDS011;11822;52.470;10.688;2022-07-12T14:35:41;0.85;;;0.85;;
23306;SDS011;11822;52.470;10.688;2022-07-12T14:38:06;2.25;;;1.15;;
23306;SDS011;11822;52.470;10.688;2022-07-12T14:40:32;1.63;;;0.90;;
23306;SDS011;11822;52.470;10.688;2022-07-12T14:42:57;1.40;;;0.98;;
23306;SDS011;11822;52.470;10.688;2022-07-12T14:45:23;1.92;;;0.90;;
23306;SDS011;11822;52.470;10.688;2022-07-12T14:47:49;2.70;;;0.90;;
23306;SDS011;11822;52.470;10.688;2022-07-12T14:50:14;0.85;;;0.82;;
23306;SDS011;11822;52.470;10.688;2022-07-12T14:52:40;3.15;;;1.10;;
23306;SDS011;11822;52.470;10.688;2022-07-12T14:55:05;0.82;;;0.75;;
23306;SDS011;11822;52.470;10.688;2022-07-12T14:57:31;1.60;;;1.00;;
23306;SDS011;11822;52.470;10.688;2022-07-12T14:59:57;1.00;;;1.00;;
23306;SDS011;11822;52.470;10.688;2022-07-12T15:02:22;1.58;;;1.00;;